Time;durP1;ratioP1;P1;durP2;ratioP2;P2;SDS_P1;SDS_P2;PMS_P1;PMS_P2;Temp;Humidity;BMP_temperature;BMP_pressure;BME280_temperature;BME280_humidity;BME280_pressure;Samples;Min_cycle;Max_cycle;Signal;HPM_P1;HPM_P2
2023/09/12 00:02:05;;;;;;;;;;;;;;;18.06;100.00;101292.69;5038794;28;19936;-85
2023/09/12 00:04:51;;;;;;;;;;;;;;;18.04;100.00;101281.19;5026696;28;19924;-86
2023/09/12 00:07:37;;;;;;;;;;;;;;;18.04;100.00;101281.19;5049988;28;19940;-86
2023/09/12 00:10:23;;;;;;;;;;;;;;;18.01;100.00;101284.06;5023155;28;20386;-86
2023/09/12 00:13:11;;;;;;;;;;;;;;;18.00;100.00;101285.06;5039215;28;19933;-85
2023/09/12 00:15:57;;;;;;;;;;;;;;;17.99;100.00;101289.56;5039909;28;19929;-85
2023/09/12 00:18:46;;;;;;;;;;;;;;;18.00;100.00;101287.72;5025518;28;19924;-85
2023/09/12 00:21:32;;;;;;;;;;;;;;;17.98;100.00;101287.81;5053707;28;20348;-85
2023/09/12 00:24:17;;;;;;;;;;;;;;;17.97;100.00;101293.31;5043509;28;19928;-85
2023/09/12 00:27:04;;;;;;;;;;;;;;;17.95;100.00;101282.69;5042324;28;20311;-86
2023/09/12 00:29:50;;;;;;;;;;;;;;;17.92;100.00;101285.56;5043641;28;20440;-86
2023/09/12 00:32:36;;;;;;;;;;;;;;;17.90;100.00;101279.47;5040157;28;20499;-86
2023/09/12 00:35:21;;;;;;;;;;;;;;;17.88;100.00;101281.41;5054512;28;19932;-86
2023/09/12 00:38:08;;;;;;;;;;;;;;;17.87;100.00;101274.34;5052248;28;19932;-86
2023/09/12 00:40:54;;;;;;;;;;;;;;;17.84;100.00;101274.53;5055893;28;20041;-87
2023/09/12 00:43:39;;;;;;;;;;;;;;;17.82;100.00;101284.53;5037219;28;20015;-84
2023/09/12 00:46:25;;;;;;;;;;;;;;;17.79;100.00;101282.91;5057052;28;19932;-86
2023/09/12 00:49:11;;;;;;;;;;;;;;;17.78;100.00;101279.34;5056776;28;19936;-86
2023/09/12 00:51:56;;;;;;;;;;;;;;;17.77;100.00;101280.31;5041631;28;19967;-86
2023/09/12 00:54:42;;;;;;;;;;;;;;;17.78;100.00;101265.97;5043824;28;19932;-86
2023/09/12 00:57:28;;;;;;;;;;;;;;;17.77;100.00;101258.91;5026567;28;20290;-86
2023/09/12 01:00:17;;;;;;;;;;;;;;;17.77;100.00;101258.91;5040617;28;19943;-87
2023/09/12 01:03:02;;;;;;;;;;;;;;;17.77;100.00;101248.19;5045077;28;20363;-86
2023/09/12 01:05:48;;;;;;;;;;;;;;;17.77;100.00;101258.91;5039571;28;19928;-86
2023/09/12 01:08:34;;;;;;;;;;;;;;;17.77;100.00;101245.50;5057458;28;19936;-85
2023/09/12 01:11:29;;;;;;;;;;;;;;;17.76;100.00;101232.25;5044106;28;19924;-86
2023/09/12 01:14:15;;;;;;;;;;;;;;;17.75;100.00;101234.06;5032004;28;19995;-86
2023/09/12 01:17:06;;;;;;;;;;;;;;;17.75;100.00;101244.78;5035901;28;20004;-85
2023/09/12 01:19:52;;;;;;;;;;;;;;;17.73;100.00;101249.38;5056807;28;20053;-87
2023/09/12 01:22:47;;;;;;;;;;;;;;;17.72;100.00;101247.69;5042615;28;19928;-86
2023/09/12 01:25:32;;;;;;;;;;;;;;;17.70;100.00;101252.25;5057106;28;19952;-87
2023/09/12 01:28:18;;;;;;;;;;;;;;;17.68;100.00;101264.03;5056884;28;19928;-87
2023/09/12 01:31:04;;;;;;;;;;;;;;;17.65;100.00;101257.94;5056864;28;19959;-86
2023/09/12 01:33:49;;;;;;;;;;;;;;;17.62;100.00;101255.50;5034619;28;20879;-87
2023/09/12 01:36:35;;;;;;;;;;;;;;;17.60;100.00;101256.56;5023061;28;20059;-88
2023/09/12 01:39:20;;;;;;;;;;;;;;;17.57;100.00;101252.25;5053055;28;20082;-87
2023/09/12 01:42:06;;;;;;;;;;;;;;;17.55;100.00;101247.97;5053853;28;19951;-86
2023/09/12 01:44:54;;;;;;;;;;;;;;;17.50;100.00;101245.63;5035934;28;20043;-86
2023/09/12 01:47:40;;;;;;;;;;;;;;;17.47;100.00;101245.81;5041984;28;21791;-86
2023/09/12 01:50:26;;;;;;;;;;;;;;;17.44;100.00;101238.00;5022916;28;20181;-87
2023/09/12 01:53:14;;;;;;;;;;;;;;;17.40;100.00;101236.50;5040914;28;19931;-85
2023/09/12 01:55:59;;;;;;;;;;;;;;;17.36;100.00;101244.75;5054791;28;19931;-86
2023/09/12 01:58:45;;;;;;;;;;;;;;;17.34;100.00;101245.81;5040237;28;19924;-87
2023/09/12 02:01:31;;;;;;;;;;;;;;;17.32;100.00;101253.09;5051381;28;19929;-88
2023/09/12 02:04:16;;;;;;;;;;;;;;;17.28;100.00;101246.22;5018870;28;20115;-87
2023/09/12 02:07:02;;;;;;;;;;;;;;;17.26;100.00;101249.00;5052691;28;19924;-88
2023/09/12 02:09:47;;;;;;;;;;;;;;;17.23;100.00;101246.53;5039326;28;19943;-88
2023/09/12 02:12:33;;;;;;;;;;;;;;;17.21;100.00;101245.78;5028589;28;20499;-87
2023/09/12 02:15:19;;;;;;;;;;;;;;;17.20;100.00;101244.94;5057084;28;19932;-87
2023/09/12 02:18:04;;;;;;;;;;;;;;;17.17;100.00;101250.47;5053053;28;19935;-87
2023/09/12 02:20:50;;;;;;;;;;;;;;;17.15;100.00;101244.38;5038545;28;19933;-87
2023/09/12 02:23:36;;;;;;;;;;;;;;;17.11;100.00;101242.88;5051684;28;20341;-88
2023/09/12 02:26:21;;;;;;;;;;;;;;;17.08;100.00;101243.06;5021058;28;19939;-89
2023/09/12 02:29:09;;;;;;;;;;;;;;;17.05;100.00;101237.94;5050529;28;20004;-88
2023/09/12 02:31:55;;;;;;;;;;;;;;;17.03;100.00;101245.19;5040773;28;19933;-88
2023/09/12 02:34:41;;;;;;;;;;;;;;;17.02;100.00;101247.03;5025215;28;19928;-89
2023/09/12 02:37:30;;;;;;;;;;;;;;;17.02;100.00;101247.03;5039849;28;19928;-90
2023/09/12 02:40:18;;;;;;;;;;;;;;;17.01;100.00;101249.75;5051368;28;19928;-87
2023/09/12 02:43:03;;;;;;;;;;;;;;;16.99;100.00;101251.69;5034728;28;19927;-88
2023/09/12 02:45:49;;;;;;;;;;;;;;;16.95;100.00;101246.53;5033496;28;19935;-88
2023/09/12 02:48:34;;;;;;;;;;;;;;;16.92;100.00;101241.38;5052377;28;19939;-88
2023/09/12 02:51:20;;;;;;;;;;;;;;;16.88;100.00;101244.38;5038913;28;19924;-89
2023/09/12 02:54:06;;;;;;;;;;;;;;;16.87;100.00;101248.84;5053208;28;19938;-88
2023/09/12 02:56:51;;;;;;;;;;;;;;;16.85;100.00;101250.78;5043730;28;19985;-90
2023/09/12 02:59:37;;;;;;;;;;;;;;;16.85;100.00;101250.78;5047672;28;19979;-88
2023/09/12 03:02:23;;;;;;;;;;;;;;;16.76;100.00;101256.69;5035268;28;20003;-88
2023/09/12 03:05:08;;;;;;;;;;;;;;;16.66;100.00;101253.78;5048800;28;19936;-88
2023/09/12 03:07:54;;;;;;;;;;;;;;;16.61;100.00;101248.72;5037330;28;20123;-88
2023/09/12 03:10:40;;;;;;;;;;;;;;;16.58;100.00;101254.28;5034527;28;19959;-89
2023/09/12 03:13:25;;;;;;;;;;;;;;;16.55;100.00;101252.66;5039437;28;19928;-89
2023/09/12 03:16:14;;;;;;;;;;;;;;;16.53;100.00;101256.38;5039385;28;19936;-88
2023/09/12 03:19:02;;;;;;;;;;;;;;;16.49;100.00;101254.84;5053077;28;20305;-88
2023/09/12 03:21:48;;;;;;;;;;;;;;;16.44;100.00;101257.84;5052397;28;20020;-88
2023/09/12 03:24:33;;;;;;;;;;;;;;;16.39;100.00;101247.44;5020845;28;20722;-88
2023/09/12 03:27:19;;;;;;;;;;;;;;;16.34;100.00;101246.88;5037702;28;19933;-88
2023/09/12 03:30:05;;;;;;;;;;;;;;;16.30;100.00;101250.72;5053803;28;20516;-86
2023/09/12 03:32:51;;;;;;;;;;;;;;;16.26;100.00;101251.84;5041717;28;19951;-88
2023/09/12 03:35:36;;;;;;;;;;;;;;;16.25;100.00;101240.28;5050045;28;19928;-87
2023/09/12 03:38:22;;;;;;;;;;;;;;;16.25;100.00;101242.97;5049585;28;19928;-86
2023/09/12 03:41:07;;;;;;;;;;;;;;;16.26;100.00;101241.16;5036945;28;20011;-87
2023/09/12 03:43:54;;;;;;;;;;;;;;;16.26;100.00;101234.03;5037284;28;19975;-89
2023/09/12 03:46:40;;;;;;;;;;;;;;;16.25;100.00;101236.78;5020503;28;19932;-86
2023/09/12 03:49:28;;;;;;;;;;;;;;;16.28;100.00;101241.91;5019301;28;20571;-85
2023/09/12 03:52:18;;;;;;;;;;;;;;;16.27;100.00;101248.22;5035189;28;19978;-87
2023/09/12 03:55:04;;;;;;;;;;;;;;;16.27;100.00;101242.88;5036362;28;20363;-87
2023/09/12 03:57:53;;;;;;;;;;;;;;;16.28;100.00;101240.13;5019121;28;19972;-87
2023/09/12 04:00:38;;;;;;;;;;;;;;;16.25;100.00;101250.13;5049582;28;20530;-87
2023/09/12 04:03:24;;;;;;;;;;;;;;;16.22;100.00;101240.50;5030760;28;20081;-86
2023/09/12 04:06:10;;;;;;;;;;;;;;;16.20;100.00;101239.75;5034964;28;19924;-87
2023/09/12 04:08:55;;;;;;;;;;;;;;;16.19;100.00;101240.72;5047518;28;19928;-86
2023/09/12 04:11:41;;;;;;;;;;;;;;;16.19;100.00;101243.38;5052272;28;19967;-88
2023/09/12 04:14:27;;;;;;;;;;;;;;;16.19;100.00;101238.03;5053399;28;19929;-87
2023/09/12 04:17:13;;;;;;;;;;;;;;;16.20;100.00;101242.41;5041390;28;19943;-89
2023/09/12 04:19:58;;;;;;;;;;;;;;;16.21;100.00;101238.78;5043348;28;20007;-89
2023/09/12 04:22:44;;;;;;;;;;;;;;;16.23;100.00;101241.38;5033418;28;19924;-88
2023/09/12 04:25:30;;;;;;;;;;;;;;;16.24;100.00;101235.91;5035450;28;20302;-88
2023/09/12 04:28:18;;;;;;;;;;;;;;;16.25;100.00;101229.59;5055137;28;20058;-88
2023/09/12 04:31:04;;;;;;;;;;;;;;;16.24;100.00;101222.56;5034677;28;19924;-86
2023/09/12 04:33:52;;;;;;;;;;;;;;;16.26;100.00;101225.13;5054318;28;19933;-87
2023/09/12 04:36:38;;;;;;;;;;;;;;;16.26;100.00;101226.00;5041187;28;19929;-86
2023/09/12 04:39:24;;;;;;;;;;;;;;;16.25;100.00;101223.44;5050559;28;20064;-87
2023/09/12 04:42:10;;;;;;;;;;;;;;;16.25;100.00;101223.44;5041442;28;19998;-86
2023/09/12 04:44:55;;;;;;;;;;;;;;;16.23;100.00;101223.50;5041891;28;20679;-86
2023/09/12 04:47:41;;;;;;;;;;;;;;;16.18;100.00;101224.78;5051329;28;19925;-87
2023/09/12 04:50:27;;;;;;;;;;;;;;;16.18;100.00;101225.63;5039922;28;20380;-86
2023/09/12 04:53:12;;;;;;;;;;;;;;;16.13;100.00;101220.56;5023460;28;19924;-86
2023/09/12 04:55:58;;;;;;;;;;;;;;;16.11;100.00;101214.47;5056804;28;19943;-86
2023/09/12 04:58:43;;;;;;;;;;;;;;;16.10;100.00;101220.78;5057653;28;19980;-87
2023/09/12 05:01:29;;;;;;;;;;;;;;;16.07;100.00;101217.44;5057603;28;19928;-87
2023/09/12 05:04:15;;;;;;;;;;;;;;;16.06;100.00;101211.22;5041683;28;20039;-87
2023/09/12 05:07:00;;;;;;;;;;;;;;;16.07;100.00;101218.28;5058345;28;20402;-86
2023/09/12 05:09:46;;;;;;;;;;;;;;;16.07;100.00;101215.63;5062355;28;20514;-87
2023/09/12 05:12:34;;;;;;;;;;;;;;;16.07;100.00;101209.44;5042844;28;19944;-86
2023/09/12 05:15:20;;;;;;;;;;;;;;;16.05;100.00;101209.50;5057943;28;19971;-87
2023/09/12 05:18:06;;;;;;;;;;;;;;;16.06;100.00;101215.72;5043381;28;19939;-86
2023/09/12 05:20:51;;;;;;;;;;;;;;;16.07;100.00;101212.09;5055831;28;20406;-86
2023/09/12 05:23:37;;;;;;;;;;;;;;;16.06;100.00;101213.06;5052061;28;20448;-86
2023/09/12 05:26:23;;;;;;;;;;;;;;;16.06;100.00;101219.25;5053789;28;20344;-87
2023/09/12 05:29:08;;;;;;;;;;;;;;;16.06;100.00;101219.25;5056085;28;19973;-87
2023/09/12 05:31:54;;;;;;;;;;;;;;;16.07;100.00;101220.09;5055886;28;21559;-86
2023/09/12 05:34:39;;;;;;;;;;;;;;;16.08;100.00;101225.34;5041065;28;19920;-85
2023/09/12 05:37:25;;;;;;;;;;;;;;;16.09;100.00;101229.75;5032131;28;20418;-85
2023/09/12 05:40:11;;;;;;;;;;;;;;;16.13;100.00;101236.59;5039331;28;19928;-84
2023/09/12 05:42:56;;;;;;;;;;;;;;;16.17;100.00;101239.09;5055598;28;20398;-85
2023/09/12 05:45:42;;;;;;;;;;;;;;;16.24;100.00;101237.75;5038132;28;19944;-86
2023/09/12 05:48:28;;;;;;;;;;;;;;;16.29;100.00;101244.50;5037811;28;20513;-86
2023/09/12 05:51:14;;;;;;;;;;;;;;;16.34;100.00;101244.19;5039708;28;19944;-86
2023/09/12 05:54:01;;;;;;;;;;;;;;;16.39;100.00;101249.25;5056527;28;19935;-85
2023/09/12 05:56:48;;;;;;;;;;;;;;;16.43;100.00;101246.31;5054289;28;19935;-85
2023/09/12 05:59:37;;;;;;;;;;;;;;;16.51;100.00;101239.59;5054164;28;20274;-85
2023/09/12 06:02:23;;;;;;;;;;;;;;;16.55;100.00;101227.75;5053195;28;19933;-85
2023/09/12 06:05:09;;;;;;;;;;;;;;;16.59;100.00;101234.63;5055290;28;19967;-85
2023/09/12 06:07:54;;;;;;;;;;;;;;;16.65;100.00;101238.69;5055516;28;19928;-85
2023/09/12 06:10:40;;;;;;;;;;;;;;;16.67;100.00;101236.81;5055130;28;19998;-85
2023/09/12 06:13:28;;;;;;;;;;;;;;;16.69;100.00;101246.41;5024341;28;20011;-85
2023/09/12 06:16:16;;;;;;;;;;;;;;;16.76;100.00;101246.88;5051027;28;19936;-84
2023/09/12 06:19:05;;;;;;;;;;;;;;;16.80;100.00;101244.88;5023719;28;20089;-84
2023/09/12 06:21:50;;;;;;;;;;;;;;;16.83;100.00;101234.81;5054043;28;19932;-85
2023/09/12 06:24:39;;;;;;;;;;;;;;;16.88;100.00;101229.16;5055351;28;19933;-86
2023/09/12 06:27:25;;;;;;;;;;;;;;;16.93;100.00;101231.53;5056066;28;19932;-85
2023/09/12 06:30:11;;;;;;;;;;;;;;;16.98;100.00;101242.78;5043645;28;19932;-86
2023/09/12 06:32:56;;;;;;;;;;;;;;;17.05;100.00;101240.59;5039727;28;20477;-86
2023/09/12 06:35:42;;;;;;;;;;;;;;;17.09;100.00;101236.75;5044650;28;20066;-86
2023/09/12 06:38:27;;;;;;;;;;;;;;;17.13;100.00;101246.31;5043578;28;20001;-85
2023/09/12 06:41:13;;;;;;;;;;;;;;;17.15;100.00;101244.38;5041258;28;20094;-85
2023/09/12 06:43:59;;;;;;;;;;;;;;;17.18;100.00;101246.84;5039835;28;19929;-85
2023/09/12 06:46:45;;;;;;;;;;;;;;;17.22;100.00;101245.66;5046326;28;19955;-86
2023/09/12 06:49:32;;;;;;;;;;;;;;;17.27;100.00;101249.88;5041507;28;20005;-86
2023/09/12 06:52:23;;;;;;;;;;;;;;;17.32;100.00;101242.38;5041749;28;19935;-85
2023/09/12 06:55:09;;;;;;;;;;;;;;;17.35;100.00;101247.53;5045652;28;20071;-84
2023/09/12 06:57:54;;;;;;;;;;;;;;;17.39;100.00;101249.03;5044287;28;19956;-85
2023/09/12 07:00:40;;;;;;;;;;;;;;;17.43;100.00;101250.53;5042288;28;19924;-85
2023/09/12 07:03:28;;;;;;;;;;;;;;;17.46;100.00;101250.34;5042096;28;19944;-84
2023/09/12 07:06:22;;;;;;;;;;;;;;;17.49;100.00;101244.75;5055629;28;19924;-84
2023/09/12 07:09:08;;;;;;;;;;;;;;;17.54;100.00;101247.09;5026746;28;20027;-83
2023/09/12 07:11:54;;;;;;;;;;;;;;;17.60;100.00;101246.69;5053351;28;19935;-82
2023/09/12 07:15:00;;;;;;;;;;;;;;;17.67;100.00;101244.47;5037354;28;20517;-83
2023/09/12 07:17:46;;;;;;;;;;;;;;;17.73;100.00;101251.19;5052133;28;19929;-82
2023/09/12 07:20:34;;;;;;;;;;;;;;;17.80;100.00;101262.34;5038208;28;20389;-85
2023/09/12 07:23:20;;;;;;;;;;;;;;;17.83;100.00;101251.41;5058447;28;19927;-85
2023/09/12 07:26:05;;;;;;;;;;;;;;;17.87;100.00;101260.97;5053465;28;19933;-83
2023/09/12 07:28:51;;;;;;;;;;;;;;;17.94;100.00;101254.22;5037889;28;19929;-85
2023/09/12 07:31:37;;;;;;;;;;;;;;;18.02;100.00;101267.03;5043376;28;20395;-87
2023/09/12 07:34:25;;;;;;;;;;;;;;;18.11;100.00;101265.56;5043021;28;19933;-84
2023/09/12 07:37:11;;;;;;;;;;;;;;;18.21;100.00;101274.69;5051352;28;19928;-86
2023/09/12 07:39:57;;;;;;;;;;;;;;;18.38;100.00;101277.97;5060529;28;19924;-84
2023/09/12 07:42:43;;;;;;;;;;;;;;;18.52;100.00;101283.19;5057800;28;19940;-86
2023/09/12 07:45:31;;;;;;;;;;;;;;;18.68;100.00;101280.25;5046142;28;19956;-87
2023/09/12 07:48:16;;;;;;;;;;;;;;;18.86;100.00;101282.56;5030508;28;19924;-86
2023/09/12 07:51:14;;;;;;;;;;;;;;;19.01;100.00;101283.22;5073752;28;20000;-87
2023/09/12 07:53:59;;;;;;;;;;;;;;;19.10;100.00;101282.59;5061252;28;19995;-87
2023/09/12 07:56:48;;;;;;;;;;;;;;;19.17;100.00;101277.59;5056002;28;19925;-87
2023/09/12 07:59:34;;;;;;;;;;;;;;;19.24;100.00;101275.31;5037383;28;20025;-87
2023/09/12 08:02:20;;;;;;;;;;;;;;;19.29;100.00;101280.34;5058043;28;19935;-87
2023/09/12 08:05:06;;;;;;;;;;;;;;;19.33;100.00;101284.50;5064002;28;19982;-88
2023/09/12 08:07:52;;;;;;;;;;;;;;;19.34;100.00;101276.31;5041276;28;19933;-83
2023/09/12 08:10:37;;;;;;;;;;;;;;;19.31;100.00;101287.31;5058003;28;19943;-85
2023/09/12 08:13:27;;;;;;;;;;;;;;;19.28;100.00;101282.16;5042910;28;19991;-85
2023/09/12 08:16:13;;;;;;;;;;;;;;;19.24;100.00;101291.44;5059797;28;19921;-85
2023/09/12 08:18:59;;;;;;;;;;;;;;;19.22;100.00;101298.72;5026435;28;20016;-86
2023/09/12 08:21:45;;;;;;;;;;;;;;;19.21;100.00;101297.88;5053398;28;22065;-85
2023/09/12 08:24:31;;;;;;;;;;;;;;;19.23;100.00;101305.81;5038064;28;19951;-87
2023/09/12 08:27:16;;;;;;;;;;;;;;;19.26;100.00;101302.88;5042590;28;19929;-85
2023/09/12 08:30:04;;;;;;;;;;;;;;;19.29;100.00;101305.34;5040123;28;19986;-85
2023/09/12 08:32:57;;;;;;;;;;;;;;;19.34;100.00;101308.53;5061458;28;20735;-86
2023/09/12 08:35:43;;;;;;;;;;;;;;;19.38;100.00;101325.25;5057303;28;20426;-85
2023/09/12 08:38:28;;;;;;;;;;;;;;;19.39;100.00;101325.16;5045020;28;19964;-86
2023/09/12 08:41:17;;;;;;;;;;;;;;;19.45;100.00;101331.03;5034369;28;20043;-85
2023/09/12 08:44:05;;;;;;;;;;;;;;;19.49;100.00;101333.38;5053890;28;19921;-86
2023/09/12 08:46:51;;;;;;;;;;;;;;;19.54;100.00;101338.38;5030339;28;19936;-85
2023/09/12 08:49:37;;;;;;;;;;;;;;;19.63;100.00;101337.69;5020941;28;19932;-84
2023/09/12 08:52:23;;;;;;;;;;;;;;;19.78;100.00;101335.66;5031651;28;20340;-84
2023/09/12 08:55:12;;;;;;;;;;;;;;;19.91;100.00;101338.25;5046252;28;19928;-85
2023/09/12 08:57:57;;;;;;;;;;;;;;;20.00;100.00;101331.31;5035929;28;19932;-85
2023/09/12 09:00:43;;;;;;;;;;;;;;;20.08;100.00;101338.78;5022344;28;19955;-86
2023/09/12 09:03:29;;;;;;;;;;;;;;;20.16;100.00;101327.44;5045805;28;19932;-86
2023/09/12 09:06:14;;;;;;;;;;;;;;;20.25;100.00;101320.50;5048296;28;20323;-86
2023/09/12 09:09:04;;;;;;;;;;;;;;;20.28;100.00;101322.94;5027432;28;19929;-86
2023/09/12 09:11:50;;;;;;;;;;;;;;;20.32;100.00;101319.03;5027853;28;20081;-85
2023/09/12 09:14:35;;;;;;;;;;;;;;;20.34;100.00;101314.38;5046223;28;19928;-86
2023/09/12 09:17:21;;;;;;;;;;;;;;;20.39;100.00;101316.69;5030717;28;19952;-84
2023/09/12 09:20:09;;;;;;;;;;;;;;;20.49;100.00;101310.44;5047068;28;20720;-85
2023/09/12 09:22:57;;;;;;;;;;;;;;;20.58;100.00;101308.00;5018793;28;19932;-86
2023/09/12 09:25:43;;;;;;;;;;;;;;;20.61;100.00;101305.06;5047249;28;19929;-88
2023/09/12 09:28:31;;;;;;;;;;;;;;;20.65;100.00;101302.97;5034253;28;19944;-88
2023/09/12 09:31:21;;;;;;;;;;;;;;;20.70;100.00;101308.84;5047226;28;21847;-87
2023/09/12 09:34:13;;;;;;;;;;;;;;;20.81;100.00;101310.66;5042755;28;20385;-86
2023/09/12 09:36:59;;;;;;;;;;;;;;;21.01;100.00;101317.97;5037777;28;19928;-87
2023/09/12 09:39:46;;;;;;;;;;;;;;;21.17;100.00;101305.94;5033411;28;19960;-87
2023/09/12 09:42:34;;;;;;;;;;;;;;;21.29;100.00;101310.28;5025195;28;20047;-86
2023/09/12 09:45:19;;;;;;;;;;;;;;;21.43;100.00;101313.66;5049059;28;20211;-89
2023/09/12 09:48:08;;;;;;;;;;;;;;;21.51;100.00;101316.53;5026650;28;19940;-86
2023/09/12 09:51:03;;;;;;;;;;;;;;;21.57;100.00;101315.16;5048106;28;19928;-87
2023/09/12 09:53:51;;;;;;;;;;;;;;;21.57;100.00;101315.16;5045370;28;19928;-91
2023/09/12 09:56:46;;;;;;;;;;;;;;;21.58;100.00;101316.88;5025316;28;19933;-88
2023/09/12 09:59:32;;;;;;;;;;;;;;;21.61;100.00;101313.09;5014660;28;19929;-90
2023/09/12 10:02:21;;;;;;;;;;;;;;;21.62;100.00;101312.94;5027177;28;19939;-86
2023/09/12 10:05:06;;;;;;;;;;;;;;;21.65;100.00;101309.13;5005281;28;19978;-86
2023/09/12 10:07:54;;;;;;;;;;;;;;;21.63;100.00;101319.19;4998205;28;20431;-88
2023/09/12 10:10:40;;;;;;;;;;;;;;;21.64;100.00;101315.50;5010440;28;19932;-83
2023/09/12 10:13:30;;;;;;;;;;;;;;;21.65;100.00;101318.06;5019375;28;19932;-89
2023/09/12 10:16:16;;;;;;;;;;;;;;;21.66;100.00;101324.28;5019790;28;19925;-89
2023/09/12 10:19:13;;;;;;;;;;;;;;;21.64;100.00;101327.16;5019951;28;19939;-87
2023/09/12 10:22:07;;;;;;;;;;;;;;;21.63;100.00;101329.97;5019350;28;20470;-92
2023/09/12 10:24:53;;;;;;;;;;;;;;;21.63;100.00;101329.97;5017387;28;19936;-83
2023/09/12 10:27:39;;;;;;;;;;;;;;;21.62;100.00;101326.41;5020999;28;20068;-82
2023/09/12 10:30:26;;;;;;;;;;;;;;;21.64;100.00;101321.75;5019253;28;19928;-83
2023/09/12 10:33:11;;;;;;;;;;;;;;;21.65;100.00;101330.69;5020256;28;19940;-82
2023/09/12 10:35:58;;;;;;;;;;;;;;;21.65;100.00;101318.06;5025626;28;19924;-84
2023/09/12 10:38:46;;;;;;;;;;;;;;;21.66;100.00;101318.91;5035113;28;19982;-82
2023/09/12 10:41:32;;;;;;;;;;;;;;;21.69;100.00;101318.69;5034346;28;19975;-83
2023/09/12 10:44:18;;;;;;;;;;;;;;;21.76;100.00;101321.69;5035246;28;19928;-84
2023/09/12 10:47:04;;;;;;;;;;;;;;;21.79;100.00;101318.75;5005876;28;19924;-82
2023/09/12 10:49:49;;;;;;;;;;;;;;;21.86;100.00;101317.25;5017119;28;19928;-83
2023/09/12 10:52:39;;;;;;;;;;;;;;;21.91;100.00;101325.78;5036389;28;19932;-82
2023/09/12 10:55:25;;;;;;;;;;;;;;;21.94;100.00;101327.34;5024736;28;20109;-81
2023/09/12 10:58:11;;;;;;;;;;;;;;;21.97;100.00;101325.22;5028464;28;19929;-82
2023/09/12 11:01:15;;;;;;;;;;;;;;;22.02;100.00;101327.56;5026675;28;19960;-82
2023/09/12 11:04:19;;;;;;;;;;;;;;;22.05;100.00;101319.19;5023758;28;19936;-83
2023/09/12 11:07:24;;;;;;;;;;;;;;;22.06;100.00;101328.13;5023258;28;21749;-84
2023/09/12 11:10:18;;;;;;;;;;;;;;;22.03;100.00;101326.56;5007614;28;20864;-84
2023/09/12 11:13:04;;;;;;;;;;;;;;;22.02;100.00;101330.25;5005029;28;19928;-83
2023/09/12 11:16:08;;;;;;;;;;;;;;;22.04;100.00;101333.66;5023170;28;19929;-84
2023/09/12 11:19:13;;;;;;;;;;;;;;;22.12;100.00;101335.69;5023450;28;20584;-82
2023/09/12 11:21:59;;;;;;;;;;;;;;;22.19;100.00;101327.91;5022715;28;19954;-84
2023/09/12 11:24:46;;;;;;;;;;;;;;;22.27;100.00;101328.09;5024762;28;19928;-82
2023/09/12 11:27:32;;;;;;;;;;;;;;;22.34;100.00;101331.94;5012833;28;22024;-83
2023/09/12 11:30:19;;;;;;;;;;;;;;;22.41;100.00;101334.97;5006050;28;19936;-84
2023/09/12 11:33:05;;;;;;;;;;;;;;;22.46;100.00;101331.84;4995053;28;19964;-83
2023/09/12 11:36:03;;;;;;;;;;;;;;;22.49;100.00;101340.53;5004435;28;19935;-85
2023/09/12 11:38:49;;;;;;;;;;;;;;;22.51;100.00;101340.44;4997271;28;19928;-84
2023/09/12 11:41:40;;;;;;;;;;;;;;;22.48;100.00;101335.25;4994876;28;20401;-83
2023/09/12 11:44:26;;;;;;;;;;;;;;;22.42;100.00;101341.19;5019718;28;19928;-84
2023/09/12 11:47:12;;;;;;;;;;;;;;;22.37;100.00;101333.50;5008957;28;19933;-84
2023/09/12 11:49:58;;;;;;;;;;;;;;;22.38;100.00;101335.22;5022756;28;20016;-83
2023/09/12 11:52:44;;;;;;;;;;;;;;;22.43;100.00;101343.75;5021199;28;19963;-83
2023/09/12 11:55:51;;;;;;;;;;;;;;;22.49;100.00;101347.75;5018266;28;19961;-82
2023/09/12 11:58:37;;;;;;;;;;;;;;;22.52;100.00;101345.69;5027109;28;19933;-83
2023/09/12 12:01:22;;;;;;;;;;;;;;;22.46;100.00;101348.03;5024029;28;20627;-82
2023/09/12 12:04:11;;;;;;;;;;;;;;;22.30;100.00;101352.09;5024233;28;19924;-83
2023/09/12 12:06:59;;;;;;;;;;;;;;;22.09;100.00;101353.00;5023984;28;19925;-82
2023/09/12 12:09:45;;;;;;;;;;;;;;;21.90;100.00;101342.91;5021342;28;19933;-82
2023/09/12 12:12:30;;;;;;;;;;;;;;;21.77;100.00;101350.34;5008382;28;19928;-83
2023/09/12 12:15:16;;;;;;;;;;;;;;;21.65;100.00;101349.53;5022577;28;20410;-83
2023/09/12 12:18:02;;;;;;;;;;;;;;;21.60;100.00;101343.69;5008284;28;19952;-85
2023/09/12 12:20:47;;;;;;;;;;;;;;;21.56;100.00;101346.66;5021545;28;19924;-83
2023/09/12 12:23:33;;;;;;;;;;;;;;;21.54;100.00;101340.53;5023853;28;20089;-84
2023/09/12 12:26:19;;;;;;;;;;;;;;;21.55;100.00;101339.56;5022388;28;19928;-86
2023/09/12 12:29:04;;;;;;;;;;;;;;;21.66;100.00;101337.75;5020697;28;19982;-84
2023/09/12 12:31:50;;;;;;;;;;;;;;;21.80;100.00;101333.94;5028963;28;19929;-87
2023/09/12 12:34:36;;;;;;;;;;;;;;;21.87;100.00;101331.56;5035093;28;19931;-82
2023/09/12 12:37:25;;;;;;;;;;;;;;;21.81;100.00;101325.72;5031527;28;19924;-83
2023/09/12 12:40:11;;;;;;;;;;;;;;;21.69;100.00;101329.47;5027819;28;19974;-86
2023/09/12 12:42:57;;;;;;;;;;;;;;;21.61;100.00;101326.56;5044511;28;19929;-85
2023/09/12 12:45:51;;;;;;;;;;;;;;;21.61;100.00;101313.09;5031533;28;20291;-85
2023/09/12 12:48:37;;;;;;;;;;;;;;;21.60;100.00;101314.03;5034267;28;20379;-86
2023/09/12 12:51:23;;;;;;;;;;;;;;;21.62;100.00;101322.88;5019898;28;19925;-85
2023/09/12 12:54:09;;;;;;;;;;;;;;;21.68;100.00;101311.56;5037917;28;20291;-85
2023/09/12 12:56:57;;;;;;;;;;;;;;;21.81;100.00;101312.25;5034109;28;19932;-86
2023/09/12 12:59:50;;;;;;;;;;;;;;;21.88;100.00;101307.19;5002228;28;19925;-86
2023/09/12 13:02:42;;;;;;;;;;;;;;;21.92;100.00;101307.75;5021168;28;19940;-84
2023/09/12 13:05:32;;;;;;;;;;;;;;;21.95;100.00;101305.66;5018283;28;20347;-85
2023/09/12 13:08:18;;;;;;;;;;;;;;;21.96;100.00;101301.97;5027711;28;19928;-86
2023/09/12 13:11:07;;;;;;;;;;;;;;;22.00;100.00;101305.25;5016937;28;20036;-89
2023/09/12 13:13:52;;;;;;;;;;;;;;;22.04;100.00;101304.00;5012961;28;19928;-85
2023/09/12 13:16:40;;;;;;;;;;;;;;;22.09;100.00;101304.47;5016941;28;19925;-91
2023/09/12 13:19:26;;;;;;;;;;;;;;;22.06;100.00;101309.28;5020810;28;19986;-84
2023/09/12 13:22:12;;;;;;;;;;;;;;;22.06;100.00;101299.31;5035440;28;20366;-88
2023/09/12 13:25:00;;;;;;;;;;;;;;;22.16;100.00;101293.16;5025125;28;19928;-85
2023/09/12 13:27:46;;;;;;;;;;;;;;;22.22;100.00;101298.00;5041490;28;19932;-83
2023/09/12 13:30:32;;;;;;;;;;;;;;;22.21;100.00;101293.56;5038263;28;19925;-84
2023/09/12 13:33:17;;;;;;;;;;;;;;;22.15;100.00;101286.03;5040606;28;20931;-83
2023/09/12 13:36:03;;;;;;;;;;;;;;;22.11;100.00;101285.44;5020991;28;19978;-84
2023/09/12 13:38:55;;;;;;;;;;;;;;;22.09;100.00;101277.50;5025828;28;19929;-83
2023/09/12 13:41:41;;;;;;;;;;;;;;;22.09;100.00;101285.59;5026803;28;20831;-86
2023/09/12 13:44:27;;;;;;;;;;;;;;;22.11;100.00;101289.00;5034582;28;19939;-81
2023/09/12 13:47:13;;;;;;;;;;;;;;;22.13;100.00;101283.47;5010784;28;20032;-82
2023/09/12 13:49:59;;;;;;;;;;;;;;;22.16;100.00;101290.44;5022088;28;19978;-82
2023/09/12 13:52:44;;;;;;;;;;;;;;;22.14;100.00;101289.72;5039799;28;19925;-81
2023/09/12 13:55:30;;;;;;;;;;;;;;;22.08;100.00;101291.09;5043206;28;19978;-82
2023/09/12 13:58:16;;;;;;;;;;;;;;;22.00;100.00;101290.94;5027828;28;19936;-81
2023/09/12 14:01:03;;;;;;;;;;;;;;;21.95;100.00;101297.56;5032731;28;19946;-83
2023/09/12 14:03:48;;;;;;;;;;;;;;;21.88;100.00;101301.78;5033232;28;19947;-81
2023/09/12 14:06:35;;;;;;;;;;;;;;;21.87;100.00;101307.31;5048404;28;19929;-79
2023/09/12 14:09:21;;;;;;;;;;;;;;;21.84;100.00;101303.91;5034748;28;20271;-80